Terminal Aerodrome Forecast
Issued by NWS

Home | Current Version | Previous Version | Text Only | Print | Product List | Glossary Off
Versions: 1 2 3 4 5 6 7 8 9 10 11 12 13

000
FTUS43 KMPX 311720
TAFRNH
TAF
KRNH 311720Z 3118/0118 11008KT P6SM BKN200
     FM312200 10007KT P6SM BKN150
     FM010600 09004KT P6SM SCT100 SCT250
     FM011500 12009KT P6SM SCT120 SCT250=

USA.gov is the U.S. government's official web portal to all federal, state and local government web resources and services.